createdAt,value
2019-01-06T00:00:04.486Z,18.21
2019-01-06T00:01:04.489Z,18.21
2019-01-06T00:02:04.490Z,18.12
2019-01-06T00:03:04.492Z,18.12
2019-01-06T00:04:04.496Z,18.12
2019-01-06T00:05:04.499Z,18.12
2019-01-06T00:06:04.500Z,18.21
2019-01-06T00:07:04.503Z,18.12
2019-01-06T00:08:04.506Z,18.12
2019-01-06T00:09:04.510Z,18.12
2019-01-06T00:10:04.511Z,18.12
2019-01-06T00:11:04.512Z,18.12
2019-01-06T00:12:04.515Z,18.21
2019-01-06T00:13:04.519Z,18.12
2019-01-06T00:14:04.520Z,18.12
2019-01-06T00:15:04.524Z,18.12
2019-01-06T00:16:04.525Z,18.21
2019-01-06T00:17:04.529Z,18.12
2019-01-06T00:18:04.530Z,18.12
2019-01-06T00:19:04.532Z,18.12
2019-01-06T00:20:04.535Z,18.12
2019-01-06T00:21:04.550Z,18.12
2019-01-06T00:22:04.703Z,18.02
2019-01-06T00:23:04.551Z,18.02
2019-01-06T00:24:04.552Z,18.12
2019-01-06T00:25:04.557Z,18.02
2019-01-06T00:26:04.554Z,18.12
2019-01-06T00:27:04.553Z,18.12
2019-01-06T00:28:04.555Z,18.02
2019-01-06T00:29:04.557Z,17.92
2019-01-06T00:30:04.558Z,18.02
2019-01-06T00:31:04.562Z,18.12
2019-01-06T00:32:04.564Z,18.12
2019-01-06T00:33:04.572Z,18.02
2019-01-06T00:34:04.571Z,18.12
2019-01-06T00:35:04.572Z,18.41
2019-01-06T00:36:04.574Z,18.12
2019-01-06T00:37:04.575Z,18.02
2019-01-06T00:38:04.578Z,18.02
2019-01-06T00:39:04.583Z,17.92
2019-01-06T00:40:04.584Z,18.12
2019-01-06T00:41:04.587Z,18.02
2019-01-06T00:42:04.588Z,18.41
2019-01-06T00:43:04.591Z,18.02
2019-01-06T00:44:04.596Z,18.02
2019-01-06T00:45:04.597Z,17.92
2019-01-06T00:46:04.599Z,18.02
2019-01-06T00:47:04.601Z,18.31
2019-01-06T00:48:04.604Z,18.02
2019-01-06T00:49:04.607Z,18.02
2019-01-06T00:50:04.608Z,18.21
2019-01-06T00:51:04.616Z,18.02
2019-01-06T00:52:04.620Z,17.92
2019-01-06T00:53:04.620Z,18.02
2019-01-06T00:54:04.619Z,18.12
2019-01-06T00:55:04.621Z,18.12
2019-01-06T00:56:04.623Z,18.41
2019-01-06T00:57:04.626Z,18.12
2019-01-06T00:58:04.628Z,18.12
2019-01-06T00:59:04.631Z,18.02
2019-01-06T01:00:04.633Z,18.02
2019-01-06T01:01:04.636Z,18.41
2019-01-06T01:02:04.637Z,18.02
2019-01-06T01:03:04.646Z,18.31
2019-01-06T01:04:04.643Z,18.31
2019-01-06T01:05:04.646Z,18.21
2019-01-06T01:06:04.648Z,18.02
2019-01-06T01:07:04.901Z,17.92
2019-01-06T01:08:04.653Z,18.02
2019-01-06T01:09:04.655Z,18.02
2019-01-06T01:10:04.660Z,18.02
2019-01-06T01:11:04.663Z,18.02
2019-01-06T01:12:04.663Z,18.02
2019-01-06T01:13:04.666Z,18.02
2019-01-06T01:14:04.667Z,17.92
2019-01-06T01:15:04.671Z,18.12
2019-01-06T01:16:04.673Z,18.21
2019-01-06T01:17:04.675Z,18.21
2019-01-06T01:18:04.677Z,18.02
2019-01-06T01:19:04.680Z,18.02
2019-01-06T01:20:04.682Z,18.02
2019-01-06T01:21:04.686Z,17.92
2019-01-06T01:22:04.687Z,17.92
2019-01-06T01:23:04.692Z,18.02
2019-01-06T01:24:04.695Z,18.02
2019-01-06T01:25:04.700Z,18.02
2019-01-06T01:26:04.697Z,18.12
2019-01-06T01:27:04.703Z,17.92
2019-01-06T01:28:04.703Z,18.02
2019-01-06T01:29:04.705Z,17.92
2019-01-06T01:30:04.707Z,18.21
2019-01-06T01:31:04.709Z,18.02
2019-01-06T01:32:04.715Z,18.21
2019-01-06T01:33:04.715Z,18.12
2019-01-06T01:34:04.717Z,17.92
2019-01-06T01:35:04.720Z,17.92
2019-01-06T01:36:04.722Z,17.92
2019-01-06T01:37:04.927Z,18.02
2019-01-06T01:38:04.726Z,18.02
2019-01-06T01:39:04.728Z,18.12
2019-01-06T01:40:04.733Z,18.12
2019-01-06T01:41:04.747Z,18.02
2019-01-06T01:42:04.735Z,18.02
2019-01-06T01:43:04.739Z,17.92
2019-01-06T01:44:04.742Z,18.02
2019-01-06T01:45:04.744Z,18.02
2019-01-06T01:46:04.746Z,18.02
2019-01-06T01:47:04.799Z,18.02
2019-01-06T01:48:04.752Z,18.02
2019-01-06T01:49:04.754Z,18.02
2019-01-06T01:50:04.755Z,18.02
2019-01-06T01:51:04.758Z,17.92
2019-01-06T01:52:04.761Z,17.92
2019-01-06T01:53:04.763Z,17.92
2019-01-06T01:54:04.766Z,18.02
2019-01-06T01:55:04.768Z,17.92
2019-01-06T01:56:04.771Z,17.92
2019-01-06T01:57:04.778Z,18.02
2019-01-06T01:58:04.779Z,17.92
2019-01-06T01:59:04.783Z,17.92
2019-01-06T02:00:04.780Z,18.02
2019-01-06T02:01:04.784Z,17.92
2019-01-06T02:02:04.785Z,17.92
2019-01-06T02:03:04.787Z,17.83
2019-01-06T02:04:04.790Z,17.83
2019-01-06T02:05:04.793Z,18.02
2019-01-06T02:06:04.798Z,17.83
2019-01-06T02:07:04.798Z,17.92
2019-01-06T02:08:04.802Z,18.02
2019-01-06T02:09:04.804Z,18.02
2019-01-06T02:10:04.804Z,18.02
2019-01-06T02:11:04.807Z,18.02
2019-01-06T02:12:04.809Z,18.02
2019-01-06T02:13:04.816Z,18.02
2019-01-06T02:14:04.815Z,18.02
2019-01-06T02:15:04.816Z,18.02
2019-01-06T02:16:04.820Z,18.02
2019-01-06T02:17:04.823Z,18.02
2019-01-06T02:18:04.825Z,18.02
2019-01-06T02:19:04.826Z,18.02
2019-01-06T02:20:04.830Z,17.92
2019-01-06T02:21:04.832Z,17.73
2019-01-06T02:22:04.834Z,18.02
2019-01-06T02:23:04.837Z,18.02
2019-01-06T02:24:04.845Z,17.92
2019-01-06T02:25:04.843Z,17.92
2019-01-06T02:26:04.845Z,17.83
2019-01-06T02:27:05.591Z,18.02
2019-01-06T02:28:04.850Z,18.02
2019-01-06T02:29:04.862Z,17.92
2019-01-06T02:30:04.859Z,17.83
2019-01-06T02:31:04.863Z,17.83
2019-01-06T02:32:04.865Z,17.83
2019-01-06T02:33:04.868Z,18.02
2019-01-06T02:34:04.864Z,17.83
2019-01-06T02:35:04.931Z,17.83
2019-01-06T02:36:04.869Z,17.73
2019-01-06T02:37:04.874Z,17.83
2019-01-06T02:38:04.873Z,17.83
2019-01-06T02:39:04.883Z,17.92
2019-01-06T02:40:04.896Z,17.83
2019-01-06T02:41:04.882Z,18.02
2019-01-06T02:42:04.883Z,17.92
2019-01-06T02:43:04.888Z,17.73
2019-01-06T02:44:04.889Z,17.83
2019-01-06T02:45:04.891Z,17.92
2019-01-06T02:46:04.893Z,17.73
2019-01-06T02:47:05.046Z,17.83
2019-01-06T02:48:04.898Z,17.73
2019-01-06T02:49:04.901Z,17.73
2019-01-06T02:50:04.903Z,17.63
2019-01-06T02:51:04.906Z,17.73
2019-01-06T02:52:04.926Z,17.73
2019-01-06T02:53:04.910Z,17.63
2019-01-06T02:54:04.913Z,17.73
2019-01-06T02:55:04.915Z,17.73
2019-01-06T02:56:04.918Z,17.73
2019-01-06T02:57:04.927Z,17.63
2019-01-06T02:58:04.922Z,17.73
2019-01-06T02:59:04.926Z,17.73
2019-01-06T03:00:04.927Z,17.73
2019-01-06T03:01:04.930Z,17.73
2019-01-06T03:02:04.934Z,17.73
2019-01-06T03:03:04.938Z,17.73
2019-01-06T03:04:04.950Z,17.73
2019-01-06T03:05:04.941Z,17.63
2019-01-06T03:06:04.942Z,17.73
2019-01-06T03:07:04.947Z,17.73
2019-01-06T03:08:04.949Z,17.73
2019-01-06T03:09:04.952Z,17.63
2019-01-06T03:10:04.954Z,17.83
2019-01-06T03:11:04.954Z,17.63
2019-01-06T03:12:04.957Z,17.73
2019-01-06T03:13:04.964Z,17.73
2019-01-06T03:14:04.966Z,17.83
2019-01-06T03:15:04.964Z,17.73
2019-01-06T03:16:04.967Z,17.63
2019-01-06T03:17:04.970Z,17.73
2019-01-06T03:18:04.975Z,17.73
2019-01-06T03:19:04.974Z,17.73
2019-01-06T03:20:04.977Z,17.73
2019-01-06T03:21:04.980Z,17.73
2019-01-06T03:22:04.981Z,17.73
2019-01-06T03:23:04.991Z,17.73
2019-01-06T03:24:04.993Z,17.63
2019-01-06T03:25:04.992Z,17.73
2019-01-06T03:26:04.993Z,17.83
2019-01-06T03:27:04.993Z,17.83
2019-01-06T03:28:04.996Z,17.63
2019-01-06T03:29:04.999Z,17.83
2019-01-06T03:30:05.007Z,17.73
2019-01-06T03:31:05.007Z,17.73
2019-01-06T03:32:05.293Z,17.83
2019-01-06T03:33:05.018Z,17.83
2019-01-06T03:34:05.034Z,17.63
2019-01-06T03:35:05.016Z,17.83
2019-01-06T03:36:05.017Z,17.63
2019-01-06T03:37:05.020Z,17.54
2019-01-06T03:38:05.021Z,17.73
2019-01-06T03:39:05.024Z,17.54
2019-01-06T03:40:05.026Z,17.73
2019-01-06T03:41:05.028Z,17.73
2019-01-06T03:42:05.030Z,17.54
2019-01-06T03:43:05.034Z,17.63
2019-01-06T03:44:05.035Z,17.63
2019-01-06T03:45:05.042Z,17.63
2019-01-06T03:46:05.041Z,17.83
2019-01-06T03:47:05.043Z,17.73
2019-01-06T03:48:05.048Z,17.73
2019-01-06T03:49:05.051Z,17.73
2019-01-06T03:50:05.052Z,17.92
2019-01-06T03:51:05.052Z,17.73
2019-01-06T03:52:05.060Z,17.73
2019-01-06T03:53:05.133Z,17.63
2019-01-06T03:54:05.060Z,17.63
2019-01-06T03:55:05.064Z,17.83
2019-01-06T03:56:05.081Z,17.63
2019-01-06T03:57:05.076Z,17.83
2019-01-06T03:58:05.081Z,17.73
2019-01-06T03:59:05.076Z,17.63
2019-01-06T04:00:05.125Z,17.73
2019-01-06T04:01:05.077Z,17.73
2019-01-06T04:02:05.078Z,17.63
2019-01-06T04:03:05.083Z,17.63
2019-01-06T04:04:05.089Z,17.83
2019-01-06T04:05:05.088Z,17.83
2019-01-06T04:06:05.089Z,17.63
2019-01-06T04:07:05.091Z,17.92
2019-01-06T04:08:05.094Z,17.83
2019-01-06T04:09:05.098Z,17.63
2019-01-06T04:10:05.101Z,17.63
2019-01-06T04:11:05.110Z,17.83
2019-01-06T04:12:05.106Z,17.73
2019-01-06T04:13:05.110Z,17.73
2019-01-06T04:14:05.111Z,17.73
2019-01-06T04:15:05.112Z,17.83
2019-01-06T04:16:05.114Z,17.73
2019-01-06T04:17:05.116Z,17.92
2019-01-06T04:18:05.118Z,17.73
2019-01-06T04:19:05.120Z,17.73
2019-01-06T04:20:05.124Z,17.73
2019-01-06T04:21:05.126Z,17.83
2019-01-06T04:22:05.141Z,17.83
2019-01-06T04:23:05.131Z,18.02
2019-01-06T04:24:05.135Z,17.73
2019-01-06T04:25:05.135Z,17.83
2019-01-06T04:26:05.140Z,17.63
2019-01-06T04:27:05.140Z,17.73
2019-01-06T04:28:05.150Z,18.02
2019-01-06T04:29:05.146Z,17.92
2019-01-06T04:30:05.154Z,17.73
2019-01-06T04:31:05.150Z,17.63
2019-01-06T04:32:05.154Z,17.63
2019-01-06T04:33:05.159Z,18.02
2019-01-06T04:34:05.157Z,17.92
2019-01-06T04:35:05.160Z,17.54
2019-01-06T04:36:05.163Z,17.54
2019-01-06T04:37:05.172Z,18.02
2019-01-06T04:38:05.170Z,18.02
2019-01-06T04:39:05.168Z,17.73
2019-01-06T04:40:05.173Z,17.92
2019-01-06T04:41:05.175Z,17.73
2019-01-06T04:42:05.178Z,18.02
2019-01-06T04:43:05.179Z,17.63
2019-01-06T04:44:05.182Z,17.54
2019-01-06T04:45:05.184Z,17.63
2019-01-06T04:46:05.189Z,17.63
2019-01-06T04:47:05.192Z,17.63
2019-01-06T04:48:05.192Z,17.63
2019-01-06T04:49:05.192Z,17.63
2019-01-06T04:50:05.202Z,17.63
2019-01-06T04:51:05.198Z,17.63
2019-01-06T04:52:05.201Z,17.63
2019-01-06T04:53:05.212Z,17.63
2019-01-06T04:54:05.206Z,17.54
2019-01-06T04:55:05.209Z,17.63
2019-01-06T04:56:05.213Z,17.73
2019-01-06T04:57:05.215Z,17.44
2019-01-06T04:58:05.217Z,17.63
2019-01-06T04:59:05.217Z,17.73
2019-01-06T05:00:05.221Z,17.54
2019-01-06T05:01:05.228Z,17.92
2019-01-06T05:02:05.276Z,17.92
2019-01-06T05:03:05.235Z,17.73
2019-01-06T05:04:05.249Z,17.92
2019-01-06T05:05:05.234Z,17.73
2019-01-06T05:06:05.242Z,17.92
2019-01-06T05:07:05.237Z,17.83
2019-01-06T05:08:05.240Z,17.83
2019-01-06T05:09:05.243Z,17.92
2019-01-06T05:10:05.246Z,17.83
2019-01-06T05:11:05.249Z,17.83
2019-01-06T05:12:05.252Z,17.73
2019-01-06T05:13:05.252Z,17.83
2019-01-06T05:14:05.255Z,17.92
2019-01-06T05:15:05.258Z,17.73
2019-01-06T05:16:05.262Z,17.73
2019-01-06T05:17:05.262Z,17.83
2019-01-06T05:18:05.265Z,17.73
2019-01-06T05:19:05.267Z,17.83
2019-01-06T05:20:05.271Z,17.83
2019-01-06T05:21:05.273Z,17.73
2019-01-06T05:22:05.273Z,17.83
2019-01-06T05:23:05.276Z,17.83
2019-01-06T05:24:05.284Z,17.73
2019-01-06T05:25:05.282Z,17.83
2019-01-06T05:26:05.286Z,17.83
2019-01-06T05:27:05.286Z,17.73
2019-01-06T05:28:05.289Z,17.73
2019-01-06T05:29:05.293Z,17.73
2019-01-06T05:30:05.294Z,17.73
2019-01-06T05:31:05.297Z,17.73
2019-01-06T05:32:05.329Z,17.83
2019-01-06T05:33:05.303Z,17.73
2019-01-06T05:34:06.795Z,17.73
2019-01-06T05:35:05.306Z,17.73
2019-01-06T05:36:05.308Z,17.63
2019-01-06T05:37:05.312Z,17.73
2019-01-06T05:38:05.313Z,17.73
2019-01-06T05:39:05.317Z,17.73
2019-01-06T05:40:05.323Z,17.73
2019-01-06T05:41:05.330Z,17.73
2019-01-06T05:42:05.425Z,17.63
2019-01-06T05:43:05.326Z,17.73
2019-01-06T05:44:05.328Z,17.73
2019-01-06T05:45:05.332Z,17.63
2019-01-06T05:46:05.332Z,17.73
2019-01-06T05:47:05.385Z,17.83
2019-01-06T05:48:05.338Z,17.73
2019-01-06T05:49:05.339Z,17.63
2019-01-06T05:50:05.342Z,17.73
2019-01-06T05:51:05.345Z,17.73
2019-01-06T05:52:05.348Z,17.73
2019-01-06T05:53:05.351Z,17.73
2019-01-06T05:54:05.352Z,17.73
2019-01-06T05:55:05.405Z,17.73
2019-01-06T05:56:05.361Z,17.73
2019-01-06T05:57:05.360Z,17.63
2019-01-06T05:58:05.362Z,17.73
2019-01-06T05:59:05.364Z,17.73
2019-01-06T06:00:05.367Z,17.73
2019-01-06T06:01:05.370Z,17.63
2019-01-06T06:02:05.372Z,17.73
2019-01-06T06:03:05.375Z,17.83
2019-01-06T06:04:05.377Z,17.73
2019-01-06T06:05:05.379Z,17.73
2019-01-06T06:06:05.381Z,17.63
2019-01-06T06:07:11.248Z,17.63
2019-01-06T06:08:05.388Z,17.63
2019-01-06T06:09:05.389Z,17.54
2019-01-06T06:10:05.391Z,17.73
2019-01-06T06:11:05.393Z,17.54
2019-01-06T06:12:05.399Z,17.54
2019-01-06T06:13:05.399Z,17.54
2019-01-06T06:14:05.406Z,17.54
2019-01-06T06:15:05.404Z,17.63
2019-01-06T06:16:05.406Z,17.63
2019-01-06T06:17:05.409Z,17.63
2019-01-06T06:18:05.711Z,17.63
2019-01-06T06:19:05.413Z,17.63
2019-01-06T06:20:05.419Z,17.73
2019-01-06T06:21:05.418Z,17.73
2019-01-06T06:22:05.420Z,17.63
2019-01-06T06:23:05.424Z,17.63
2019-01-06T06:24:05.425Z,17.54
2019-01-06T06:25:05.432Z,17.63
2019-01-06T06:26:05.434Z,17.63
2019-01-06T06:27:05.432Z,17.73
2019-01-06T06:28:05.435Z,17.73
2019-01-06T06:29:05.438Z,17.73
2019-01-06T06:30:05.439Z,17.63
2019-01-06T06:31:05.442Z,17.63
2019-01-06T06:32:05.495Z,17.63
2019-01-06T06:33:05.446Z,17.63
2019-01-06T06:34:05.450Z,17.63
2019-01-06T06:35:05.452Z,17.54
2019-01-06T06:36:05.454Z,17.54
2019-01-06T06:37:05.456Z,17.54
2019-01-06T06:38:05.459Z,17.63
2019-01-06T06:39:05.462Z,17.63
2019-01-06T06:40:05.463Z,17.63
2019-01-06T06:41:05.476Z,17.63
2019-01-06T06:42:05.473Z,17.63
2019-01-06T06:43:05.472Z,17.63
2019-01-06T06:44:05.473Z,17.73
2019-01-06T06:45:05.477Z,17.73
2019-01-06T06:46:05.478Z,17.73
2019-01-06T06:47:05.481Z,17.54
2019-01-06T06:48:05.486Z,17.63
2019-01-06T06:49:05.487Z,17.54
2019-01-06T06:50:05.490Z,17.44
2019-01-06T06:51:05.492Z,17.63
2019-01-06T06:52:05.498Z,17.54
2019-01-06T06:53:05.497Z,17.63
2019-01-06T06:54:05.496Z,17.63
2019-01-06T06:55:05.505Z,17.44
2019-01-06T06:56:05.504Z,17.44
2019-01-06T06:57:05.507Z,17.63
2019-01-06T06:58:05.510Z,17.44
2019-01-06T06:59:05.510Z,17.63
2019-01-06T07:00:05.514Z,17.44
2019-01-06T07:01:05.516Z,17.44
2019-01-06T07:02:05.517Z,17.44
2019-01-06T07:03:05.570Z,17.44
2019-01-06T07:04:05.523Z,17.73
2019-01-06T07:05:05.527Z,17.63
2019-01-06T07:06:05.582Z,17.44
2019-01-06T07:07:05.532Z,17.73
2019-01-06T07:08:05.532Z,17.44
2019-01-06T07:09:05.536Z,17.63
2019-01-06T07:10:05.538Z,17.63
2019-01-06T07:11:05.540Z,17.54
2019-01-06T07:12:05.542Z,17.44
2019-01-06T07:13:05.545Z,17.44
2019-01-06T07:14:05.547Z,17.54
2019-01-06T07:15:05.552Z,17.63
2019-01-06T07:16:05.552Z,17.54
2019-01-06T07:17:05.555Z,17.44
2019-01-06T07:18:05.608Z,17.44
2019-01-06T07:19:05.559Z,17.54
2019-01-06T07:20:05.562Z,17.44
2019-01-06T07:21:05.564Z,17.34
2019-01-06T07:22:05.596Z,17.44
2019-01-06T07:23:05.568Z,17.54
2019-01-06T07:24:05.572Z,17.44
2019-01-06T07:25:05.576Z,17.44
2019-01-06T07:26:05.576Z,17.54
2019-01-06T07:27:05.579Z,17.44
2019-01-06T07:28:05.583Z,17.54
2019-01-06T07:29:05.586Z,17.44
2019-01-06T07:30:05.589Z,17.63
2019-01-06T07:31:05.588Z,17.63
2019-01-06T07:32:05.591Z,17.63
2019-01-06T07:33:05.594Z,17.73
2019-01-06T07:34:05.596Z,17.63
2019-01-06T07:35:06.133Z,17.44
2019-01-06T07:36:05.604Z,17.44
2019-01-06T07:37:05.605Z,17.44
2019-01-06T07:38:05.605Z,17.44
2019-01-06T07:39:05.608Z,17.44
2019-01-06T07:40:05.611Z,17.44
2019-01-06T07:41:05.613Z,17.44
2019-01-06T07:42:05.616Z,17.44
2019-01-06T07:43:05.621Z,17.44
2019-01-06T07:44:05.620Z,17.44
2019-01-06T07:45:05.623Z,17.44
2019-01-06T07:46:05.624Z,17.44
2019-01-06T07:47:05.778Z,17.54
2019-01-06T07:48:05.634Z,17.44
2019-01-06T07:49:05.633Z,17.44
2019-01-06T07:50:05.635Z,17.44
2019-01-06T07:51:05.637Z,17.54
2019-01-06T07:52:05.641Z,17.44
2019-01-06T07:53:05.642Z,17.54
2019-01-06T07:54:05.645Z,17.44
2019-01-06T07:55:05.649Z,17.54
2019-01-06T07:56:05.683Z,17.34
2019-01-06T07:57:05.652Z,17.44
2019-01-06T07:58:05.653Z,17.44
2019-01-06T07:59:05.658Z,17.44
2019-01-06T08:00:05.659Z,17.54
2019-01-06T08:01:05.662Z,17.44
2019-01-06T08:02:05.663Z,17.44
2019-01-06T08:03:05.666Z,17.54
2019-01-06T08:04:05.671Z,17.44
2019-01-06T08:05:05.671Z,17.44
2019-01-06T08:06:05.676Z,17.44
2019-01-06T08:07:05.674Z,17.44
2019-01-06T08:08:05.679Z,17.44
2019-01-06T08:09:05.732Z,17.44
2019-01-06T08:10:05.684Z,17.54
2019-01-06T08:11:05.752Z,17.44
2019-01-06T08:12:05.710Z,17.54
2019-01-06T08:13:05.691Z,17.54
2019-01-06T08:14:05.695Z,17.54
2019-01-06T08:15:05.695Z,17.34
2019-01-06T08:16:05.702Z,17.44
2019-01-06T08:17:05.701Z,17.44
2019-01-06T08:18:05.702Z,17.44
2019-01-06T08:19:05.704Z,17.44
2019-01-06T08:20:05.714Z,17.54
2019-01-06T08:21:05.715Z,17.34
2019-01-06T08:22:05.723Z,17.63
2019-01-06T08:23:05.717Z,17.44
2019-01-06T08:24:05.719Z,17.54
2019-01-06T08:25:05.720Z,17.44
2019-01-06T08:26:05.721Z,17.54
2019-01-06T08:27:05.723Z,17.54
2019-01-06T08:28:05.727Z,17.44
2019-01-06T08:29:05.730Z,17.54
2019-01-06T08:30:05.731Z,17.44
2019-01-06T08:31:05.734Z,17.54
2019-01-06T08:32:05.737Z,17.44
2019-01-06T08:33:05.739Z,17.44
2019-01-06T08:34:05.746Z,17.34
2019-01-06T08:35:05.744Z,17.44
2019-01-06T08:36:05.797Z,17.44
2019-01-06T08:37:05.751Z,17.54
2019-01-06T08:38:05.750Z,17.63
2019-01-06T08:39:05.753Z,17.54
2019-01-06T08:40:05.807Z,17.54
2019-01-06T08:41:05.759Z,17.44
2019-01-06T08:42:05.761Z,17.54
2019-01-06T08:43:05.764Z,17.63
2019-01-06T08:44:05.769Z,17.54
2019-01-06T08:45:05.768Z,17.44
2019-01-06T08:46:05.771Z,17.54
2019-01-06T08:47:05.772Z,17.44
2019-01-06T08:48:05.775Z,17.44
2019-01-06T08:49:05.779Z,17.34
2019-01-06T08:50:05.779Z,17.54
2019-01-06T08:51:05.832Z,17.54
2019-01-06T08:52:05.800Z,17.44
2019-01-06T08:53:05.838Z,17.44
2019-01-06T08:54:05.789Z,17.44
2019-01-06T08:55:05.792Z,17.54
2019-01-06T08:56:05.796Z,17.54
2019-01-06T08:57:05.847Z,17.44
2019-01-06T08:58:05.798Z,17.44
2019-01-06T08:59:05.801Z,17.44
2019-01-06T09:00:05.809Z,17.44
2019-01-06T09:01:05.806Z,17.54
2019-01-06T09:02:05.808Z,17.44
2019-01-06T09:03:05.811Z,17.44
2019-01-06T09:04:05.814Z,17.44
2019-01-06T09:05:05.819Z,17.44
2019-01-06T09:06:05.868Z,17.44
2019-01-06T09:07:05.821Z,17.54
2019-01-06T09:08:05.823Z,17.44
2019-01-06T09:09:05.827Z,17.44
2019-01-06T09:10:05.828Z,17.63
2019-01-06T09:11:05.880Z,17.44
2019-01-06T09:12:05.831Z,17.44
2019-01-06T09:13:05.836Z,17.63
2019-01-06T09:14:05.837Z,17.44
2019-01-06T09:15:05.852Z,17.63
2019-01-06T09:16:05.894Z,17.63
2019-01-06T09:17:05.946Z,17.73
2019-01-06T09:18:05.849Z,17.63
2019-01-06T09:19:05.850Z,17.44
2019-01-06T09:20:05.904Z,17.44
2019-01-06T09:21:05.857Z,17.44
2019-01-06T09:22:05.857Z,17.54
2019-01-06T09:23:05.874Z,17.44
2019-01-06T09:24:05.863Z,17.44
2019-01-06T09:25:05.865Z,17.44
2019-01-06T09:26:05.868Z,17.44
2019-01-06T09:27:05.969Z,17.73
2019-01-06T09:28:05.872Z,17.73
2019-01-06T09:29:05.874Z,17.73
2019-01-06T09:30:05.880Z,17.44
2019-01-06T09:31:05.978Z,17.73
2019-01-06T09:32:05.884Z,17.63
2019-01-06T09:33:05.895Z,17.63
2019-01-06T09:34:05.886Z,17.63
2019-01-06T09:35:05.888Z,17.44
2019-01-06T09:36:05.891Z,17.44
2019-01-06T09:37:05.893Z,17.63
2019-01-06T09:38:05.896Z,17.44
2019-01-06T09:39:05.898Z,17.44
2019-01-06T09:40:05.901Z,17.44
2019-01-06T09:41:05.953Z,17.63
2019-01-06T09:42:05.961Z,17.44
2019-01-06T09:43:05.909Z,17.44
2019-01-06T09:44:05.910Z,17.63
2019-01-06T09:45:05.913Z,17.44
2019-01-06T09:46:05.914Z,17.63
2019-01-06T09:47:05.917Z,17.44
2019-01-06T09:48:05.923Z,17.44
2019-01-06T09:49:05.925Z,17.73
2019-01-06T09:50:05.974Z,17.44
2019-01-06T09:51:05.930Z,17.44
2019-01-06T09:52:05.929Z,17.73
2019-01-06T09:53:05.934Z,17.44
2019-01-06T09:54:05.934Z,17.44
2019-01-06T09:55:05.938Z,17.44
2019-01-06T09:56:05.941Z,17.63
2019-01-06T09:57:05.942Z,17.44
2019-01-06T09:58:05.943Z,17.63
2019-01-06T09:59:05.948Z,17.44
2019-01-06T10:00:05.949Z,17.63
2019-01-06T10:01:05.952Z,17.73
2019-01-06T10:02:05.950Z,17.44
2019-01-06T10:03:05.956Z,17.44
2019-01-06T10:04:05.958Z,17.63
2019-01-06T10:05:05.961Z,17.44
2019-01-06T10:06:05.964Z,17.63
2019-01-06T10:07:05.965Z,17.44
2019-01-06T10:08:06.978Z,17.63
2019-01-06T10:09:05.976Z,17.63
2019-01-06T10:10:05.972Z,17.63
2019-01-06T10:11:05.974Z,17.54
2019-01-06T10:12:05.978Z,17.73
2019-01-06T10:13:05.984Z,17.73
2019-01-06T10:14:06.036Z,17.63
2019-01-06T10:15:05.985Z,17.63
2019-01-06T10:16:06.091Z,17.63
2019-01-06T10:17:06.141Z,17.73
2019-01-06T10:18:05.992Z,17.73
2019-01-06T10:19:05.994Z,17.63
2019-01-06T10:20:05.998Z,17.73
2019-01-06T10:21:06.099Z,17.54
2019-01-06T10:22:06.052Z,17.73
2019-01-06T10:23:06.055Z,17.63
2019-01-06T10:24:06.056Z,17.63
2019-01-06T10:25:07.181Z,17.63
2019-01-06T10:26:06.010Z,17.63
2019-01-06T10:27:06.013Z,17.63
2019-01-06T10:28:06.016Z,17.63
2019-01-06T10:29:06.019Z,17.73
2019-01-06T10:30:06.020Z,17.63
2019-01-06T10:31:06.023Z,17.54
2019-01-06T10:32:06.027Z,17.63
2019-01-06T10:33:06.028Z,17.63
2019-01-06T10:34:06.036Z,17.73
2019-01-06T10:35:06.082Z,17.63
2019-01-06T10:36:06.035Z,17.63
2019-01-06T10:37:06.038Z,17.63
2019-01-06T10:38:06.037Z,17.73
2019-01-06T10:39:06.042Z,17.73
2019-01-06T10:40:06.055Z,17.63
2019-01-06T10:41:06.049Z,17.73
2019-01-06T10:42:06.052Z,17.63
2019-01-06T10:43:06.052Z,17.63
2019-01-06T10:44:06.054Z,17.63
2019-01-06T10:45:06.059Z,17.73
2019-01-06T10:46:06.110Z,17.63
2019-01-06T10:47:06.067Z,17.73
2019-01-06T10:48:06.065Z,17.63
2019-01-06T10:49:06.084Z,17.63
2019-01-06T10:50:06.068Z,17.73
2019-01-06T10:51:06.122Z,17.73
2019-01-06T10:52:06.073Z,17.63
2019-01-06T10:53:06.076Z,17.73
2019-01-06T10:54:06.167Z,17.92
2019-01-06T10:55:06.080Z,17.73
2019-01-06T10:56:06.083Z,17.83
2019-01-06T10:57:06.085Z,17.73
2019-01-06T10:58:06.087Z,17.83
2019-01-06T10:59:06.103Z,17.73
2019-01-06T11:00:06.093Z,17.73
2019-01-06T11:01:06.098Z,17.73
2019-01-06T11:02:06.101Z,17.73
2019-01-06T11:03:06.099Z,17.73
2019-01-06T11:04:06.103Z,17.63
2019-01-06T11:05:06.105Z,17.73
2019-01-06T11:06:06.107Z,17.73
2019-01-06T11:07:06.110Z,17.73
2019-01-06T11:08:06.119Z,17.73
2019-01-06T11:09:06.116Z,17.73
2019-01-06T11:10:06.116Z,17.73
2019-01-06T11:11:06.120Z,17.92
2019-01-06T11:12:06.125Z,17.73
2019-01-06T11:13:06.132Z,17.73
2019-01-06T11:14:06.133Z,17.73
2019-01-06T11:15:06.133Z,17.73
2019-01-06T11:16:06.135Z,17.73
2019-01-06T11:17:06.135Z,17.63
2019-01-06T11:18:06.140Z,17.73
2019-01-06T11:19:06.139Z,17.73
2019-01-06T11:20:06.140Z,17.73
2019-01-06T11:21:06.143Z,17.83
2019-01-06T11:22:06.149Z,17.73
2019-01-06T11:23:06.148Z,17.83
2019-01-06T11:24:06.151Z,17.92
2019-01-06T11:25:06.153Z,17.83
2019-01-06T11:26:06.154Z,17.83
2019-01-06T11:27:06.157Z,17.83
2019-01-06T11:28:06.160Z,17.92
2019-01-06T11:29:06.164Z,17.92
2019-01-06T11:30:06.164Z,17.92
2019-01-06T11:31:06.167Z,17.92
2019-01-06T11:32:06.171Z,17.63
2019-01-06T11:33:06.222Z,17.73
2019-01-06T11:34:06.175Z,17.83
2019-01-06T11:35:06.178Z,17.92
2019-01-06T11:36:06.179Z,17.92
2019-01-06T11:37:06.181Z,17.83
2019-01-06T11:38:06.184Z,17.83
2019-01-06T11:39:06.186Z,17.83
2019-01-06T11:40:06.189Z,17.83
2019-01-06T11:41:08.047Z,17.73
2019-01-06T11:42:06.193Z,17.92
2019-01-06T11:43:06.196Z,17.92
2019-01-06T11:44:06.198Z,17.92
2019-01-06T11:45:06.201Z,17.63
2019-01-06T11:46:06.203Z,17.83
2019-01-06T11:47:06.205Z,17.83
2019-01-06T11:48:06.208Z,17.92
2019-01-06T11:49:06.211Z,17.92
2019-01-06T11:50:06.212Z,17.83
2019-01-06T11:51:06.215Z,17.92
2019-01-06T11:52:06.218Z,17.44
2019-01-06T11:53:06.222Z,17.83
2019-01-06T11:54:06.222Z,17.92
2019-01-06T11:55:06.225Z,17.83
2019-01-06T11:56:06.229Z,17.73
2019-01-06T11:57:06.231Z,17.54
2019-01-06T11:58:06.232Z,17.92
2019-01-06T11:59:06.235Z,17.73
2019-01-06T12:00:06.237Z,17.92
2019-01-06T12:01:06.290Z,17.73
2019-01-06T12:02:06.242Z,17.73
2019-01-06T12:03:06.245Z,17.92
2019-01-06T12:04:06.246Z,17.73
2019-01-06T12:05:06.252Z,17.83
2019-01-06T12:06:06.302Z,17.92
2019-01-06T12:07:06.254Z,17.92
2019-01-06T12:08:06.257Z,18.02
2019-01-06T12:09:06.259Z,17.73
2019-01-06T12:10:06.262Z,17.73
2019-01-06T12:11:06.264Z,17.92
2019-01-06T12:12:06.266Z,18.02
2019-01-06T12:13:06.269Z,17.73
2019-01-06T12:14:06.273Z,17.73
2019-01-06T12:15:06.274Z,17.92
2019-01-06T12:16:06.276Z,17.92
2019-01-06T12:17:06.280Z,17.92
2019-01-06T12:18:06.290Z,17.73
2019-01-06T12:19:06.283Z,17.92
2019-01-06T12:20:06.286Z,17.83
2019-01-06T12:21:06.288Z,17.92
2019-01-06T12:22:06.289Z,17.83
2019-01-06T12:23:06.292Z,17.83
2019-01-06T12:24:06.295Z,17.83
2019-01-06T12:25:06.298Z,17.73
2019-01-06T12:26:06.301Z,17.63
2019-01-06T12:27:06.302Z,17.63
2019-01-06T12:28:06.304Z,17.54
2019-01-06T12:29:06.307Z,17.54
2019-01-06T12:30:06.310Z,17.73
2019-01-06T12:31:06.314Z,17.63
2019-01-06T12:32:06.315Z,17.73
2019-01-06T12:33:06.316Z,17.73
2019-01-06T12:34:06.319Z,17.44
2019-01-06T12:35:06.324Z,17.63
2019-01-06T12:36:06.325Z,17.63
2019-01-06T12:37:06.327Z,17.63
2019-01-06T12:38:06.328Z,17.63
2019-01-06T12:39:06.333Z,17.63
2019-01-06T12:40:06.336Z,17.73
2019-01-06T12:41:06.337Z,17.73
2019-01-06T12:42:06.338Z,17.63
2019-01-06T12:43:06.340Z,17.63
2019-01-06T12:44:06.343Z,17.63
2019-01-06T12:45:06.347Z,17.54
2019-01-06T12:46:06.352Z,17.63
2019-01-06T12:47:06.351Z,17.44
2019-01-06T12:48:06.359Z,17.54
2019-01-06T12:49:06.360Z,17.92
2019-01-06T12:50:06.362Z,17.54
2019-01-06T12:51:06.364Z,17.92
2019-01-06T12:52:06.365Z,17.63